Time;durP1;ratioP1;P1;durP2;ratioP2;P2;SDS_P1;SDS_P2;PMS_P1;PMS_P2;Temp;Humidity;BMP_temperature;BMP_pressure;BME280_temperature;BME280_humidity;BME280_pressure;Samples;Min_cycle;Max_cycle;Signal;HPM_P1;HPM_P2
2022/05/26 00:00:13;;;;;;;3.95;2.90;;;;;;;15.09;70.17;101605.13;5034522;28;20038;-74
2022/05/26 00:02:41;;;;;;;3.55;2.75;;;;;;;15.08;70.89;101611.34;5045404;28;20048;-73
2022/05/26 00:05:08;;;;;;;3.55;2.50;;;;;;;15.03;70.86;101605.34;5034929;28;20492;-73
2022/05/26 00:07:35;;;;;;;3.72;2.85;;;;;;;15.00;70.90;101603.66;5039077;28;20041;-74
2022/05/26 00:10:03;;;;;;;4.03;2.78;;;;;;;14.99;71.04;101604.59;5042418;28;20042;-73
2022/05/26 00:12:32;;;;;;;5.47;2.90;;;;;;;14.98;70.94;101604.66;5032115;28;20052;-73
2022/05/26 00:14:59;;;;;;;5.40;2.83;;;;;;;14.98;71.10;101607.31;5033678;28;20057;-73
2022/05/26 00:17:28;;;;;;;5.57;3.10;;;;;;;14.98;71.77;101600.19;5033375;28;20038;-76
2022/05/26 00:19:55;;;;;;;5.45;2.90;;;;;;;14.97;71.86;101602.91;5033601;28;20038;-77
2022/05/26 00:22:22;;;;;;;4.45;2.90;;;;;;;14.92;72.08;101603.09;5032587;28;20496;-77
2022/05/26 00:24:50;;;;;;;5.18;3.00;;;;;;;14.91;72.25;101599.56;5040445;28;20799;-76
2022/05/26 00:27:17;;;;;;;4.70;2.75;;;;;;;14.87;72.23;101613.88;5049361;28;20038;-76
2022/05/26 00:29:44;;;;;;;4.60;2.67;;;;;;;14.87;72.77;101613.00;5037810;28;20037;-73
2022/05/26 00:32:12;;;;;;;5.35;2.90;;;;;;;14.83;72.94;101606.94;5032878;28;20499;-73
2022/05/26 00:34:39;;;;;;;4.55;2.60;;;;;;;14.80;73.29;101609.72;5036909;28;20049;-73
2022/05/26 00:37:10;;;;;;;5.22;2.92;;;;;;;14.80;73.31;101614.13;5032358;28;20121;-74
2022/05/26 00:39:38;;;;;;;8.40;3.17;;;;;;;14.80;73.72;101614.13;5049789;28;20043;-74
2022/05/26 00:42:08;;;;;;;3.88;2.67;;;;;;;14.77;73.87;101615.13;5032163;28;20049;-72
2022/05/26 00:44:35;;;;;;;6.13;3.20;;;;;;;14.72;74.00;101609.97;5042507;28;20044;-74
2022/05/26 00:47:17;;;;;;;6.68;3.30;;;;;;;14.71;74.03;101605.59;5047637;28;20096;-74
2022/05/26 00:49:54;;;;;;;5.78;3.38;;;;;;;14.70;74.54;101611.81;5032663;28;20045;-75
2022/05/26 00:52:56;;;;;;;4.18;3.20;;;;;;;14.68;73.93;101607.50;5046319;28;20849;-74
2022/05/26 00:55:41;;;;;;;4.40;2.92;;;;;;;14.67;73.67;101598.66;5037284;28;20423;-75
2022/05/26 00:58:18;;;;;;;5.97;3.47;;;;;;;14.73;73.68;101613.50;5052320;28;20037;-74
2022/05/26 01:00:47;;;;;;;6.90;3.30;;;;;;;14.74;73.24;101609.91;5050499;28;20459;-73
2022/05/26 01:03:36;;;;;;;6.43;3.58;;;;;;;14.73;73.66;101606.41;5041222;28;20112;-73
2022/05/26 01:06:19;;;;;;;4.93;3.20;;;;;;;14.74;73.51;101612.56;5037397;28;20041;-73
2022/05/26 01:08:54;;;;;;;5.60;3.50;;;;;;;14.75;73.79;101609.00;5043157;28;20423;-72
2022/05/26 01:11:29;;;;;;;4.90;3.78;;;;;;;14.78;73.53;101621.28;5050510;28;20137;-73
2022/05/26 01:14:05;;;;;;;7.25;3.83;;;;;;;14.77;73.13;101615.13;5048035;28;20034;-72
2022/05/26 01:16:50;;;;;;;7.80;4.00;;;;;;;14.78;73.29;101611.56;5043684;28;20089;-72
2022/05/26 01:19:45;;;;;;;5.07;3.88;;;;;;;14.78;73.94;101615.97;5049577;28;20760;-72
2022/05/26 01:23:11;;;;;;;8.20;4.53;;;;;;;14.76;73.65;101626.66;5033725;28;20430;-76
2022/05/26 01:26:24;;;;;;;8.02;4.43;;;;;;;14.75;73.63;101620.47;5046107;28;20069;-75
2022/05/26 01:29:35;;;;;;;9.07;4.07;;;;;;;14.75;73.70;101622.28;5033471;28;20042;-75
2022/05/26 01:32:31;;;;;;;8.68;4.30;;;;;;;14.76;73.89;101626.66;5031449;28;20048;-73
2022/05/26 01:35:07;;;;;;;6.90;4.22;;;;;;;14.75;73.96;101620.47;5045608;28;20046;-75
2022/05/26 01:38:06;;;;;;;7.25;4.55;;;;;;;14.74;73.78;101631.16;5035994;28;20046;-74
2022/05/26 01:41:03;;;;;;;8.32;4.90;;;;;;;14.73;73.77;101621.44;5037718;28;20034;-75
2022/05/26 01:44:18;;;;;;;7.90;5.10;;;;;;;14.72;74.05;101623.25;5033625;28;20042;-75
2022/05/26 01:46:47;;;;;;;9.63;5.00;;;;;;;14.77;73.89;101624.84;5033880;28;20045;-72
2022/05/26 01:49:41;;;;;;;9.18;5.28;;;;;;;14.75;73.90;101632.88;5033729;28;20132;-72
2022/05/26 01:52:29;;;;;;;11.57;5.07;;;;;;;14.75;73.76;101632.88;5034193;28;20073;-72
2022/05/26 01:55:19;;;;;;;8.02;5.13;;;;;;;14.72;73.78;101630.34;5039317;28;20026;-71
2022/05/26 01:57:58;;;;;;;10.50;5.70;;;;;;;14.75;73.96;101647.00;5034355;28;20041;-74
2022/05/26 02:00:25;;;;;;;8.38;5.30;;;;;;;14.72;74.38;101641.84;5034241;28;20067;-74
2022/05/26 02:03:04;;;;;;;9.95;5.80;;;;;;;14.72;74.35;101647.13;5041007;28;20042;-74
2022/05/26 02:05:41;;;;;;;10.20;5.57;;;;;;;14.73;73.93;101648.88;5032811;28;20038;-74
2022/05/26 02:08:24;;;;;;;11.75;5.80;;;;;;;14.74;74.22;101655.03;5034078;28;20042;-76
2022/05/26 02:11:16;;;;;;;10.07;5.95;;;;;;;14.75;74.19;101659.44;5037142;28;20054;-75
2022/05/26 02:14:02;;;;;;;13.00;6.10;;;;;;;14.75;74.07;101662.94;5046703;28;20582;-75
2022/05/26 02:16:45;;;;;;;15.50;6.43;;;;;;;14.77;74.11;101660.25;5041494;28;20115;-74
2022/05/26 02:19:25;;;;;;;12.15;5.97;;;;;;;14.78;74.31;101663.75;5043890;28;20080;-75
2022/05/26 02:22:11;;;;;;;11.18;5.80;;;;;;;14.77;74.22;101664.66;5033102;28;20041;-74
2022/05/26 02:24:53;;;;;;;10.65;6.25;;;;;;;14.76;74.14;101669.13;5034268;28;20033;-72
2022/05/26 02:27:21;;;;;;;11.75;6.38;;;;;;;14.77;74.30;101665.56;5044075;28;20438;-73
2022/05/26 02:29:52;;;;;;;15.43;6.97;;;;;;;14.76;74.29;101655.84;5033188;28;20073;-74
2022/05/26 02:32:26;;;;;;;12.75;6.25;;;;;;;14.77;74.31;101662.91;5040698;28;20065;-74
2022/05/26 02:35:00;;;;;;;14.83;7.43;;;;;;;14.77;74.50;101665.56;5036178;28;20048;-73
2022/05/26 02:37:30;;;;;;;;;;;;;;;14.76;74.59;101669.13;5033095;28;20268;-73
2022/05/26 02:39:57;;;;;;;12.73;6.97;;;;;;;14.77;74.57;101672.63;5041007;28;19929;-73
2022/05/26 02:42:25;;;;;;;14.15;7.03;;;;;;;14.77;74.84;101669.97;5042745;28;20466;-73
2022/05/26 02:44:52;;;;;;;17.67;8.18;;;;;;;14.76;74.56;101674.44;5033381;28;20483;-74
2022/05/26 02:47:28;;;;;;;15.27;7.63;;;;;;;14.75;74.60;101673.56;5032490;28;20041;-73
2022/05/26 02:49:56;;;;;;;14.70;8.02;;;;;;;14.76;74.64;101674.44;5040271;28;20041;-74
2022/05/26 02:52:27;;;;;;;14.27;8.18;;;;;;;14.78;74.54;101674.38;5041120;28;20089;-74
2022/05/26 02:55:18;;;;;;;13.43;7.50;;;;;;;14.76;74.64;101677.09;5045613;28;20042;-73
2022/05/26 02:57:51;;;;;;;13.75;7.75;;;;;;;14.77;74.51;101677.94;5047751;28;20047;-73
2022/05/26 03:00:30;;;;;;;13.20;8.02;;;;;;;14.76;74.66;101677.09;5042261;28;20041;-74
2022/05/26 03:03:18;;;;;;;16.38;8.32;;;;;;;14.75;74.75;101678.84;5033785;28;20064;-74
2022/05/26 03:06:01;;;;;;;15.48;8.38;;;;;;;14.75;75.03;101678.84;5033095;28;20046;-74
2022/05/26 03:08:33;;;;;;;16.08;7.63;;;;;;;14.74;75.34;101686.88;5038697;28;20041;-75
2022/05/26 03:11:09;;;;;;;15.05;8.43;;;;;;;14.73;75.10;101679.84;5045745;28;20050;-73
2022/05/26 03:13:38;;;;;;;17.55;8.27;;;;;;;14.71;74.99;101677.25;5044911;28;20045;-72
2022/05/26 03:16:07;;;;;;;11.70;7.70;;;;;;;14.73;75.12;101682.50;5042339;28;20053;-73
2022/05/26 03:18:35;;;;;;;19.40;8.43;;;;;;;14.70;75.19;101682.63;5037729;28;20072;-73
2022/05/26 03:21:05;;;;;;;15.50;7.53;;;;;;;14.70;75.06;101690.59;5043724;28;20047;-73
2022/05/26 03:23:37;;;;;;;18.85;8.82;;;;;;;14.68;75.07;101682.66;5031965;28;20037;-74
2022/05/26 03:26:07;;;;;;;17.42;8.60;;;;;;;14.69;75.04;101692.34;5035411;28;20044;-74
2022/05/26 03:28:35;;;;;;;15.23;8.45;;;;;;;14.70;75.35;101686.13;5040512;28;20038;-73
2022/05/26 03:31:08;;;;;;;16.95;8.45;;;;;;;14.70;75.35;101683.47;5031637;28;20041;-73
2022/05/26 03:41:55;;;;;;;17.38;9.10;;;;;;;14.66;75.57;101696.88;5046454;28;20048;-73
2022/05/26 03:44:27;;;;;;;17.42;9.90;;;;;;;14.66;75.64;101705.69;5048528;28;20096;-74
2022/05/26 03:46:54;;;;;;;18.42;9.50;;;;;;;14.67;75.82;101702.16;5049721;28;20045;-72
2022/05/26 03:49:22;;;;;;;18.60;9.75;;;;;;;14.66;75.53;101699.53;5050322;28;20817;-73
2022/05/26 03:51:49;;;;;;;19.25;9.43;;;;;;;14.63;75.86;101700.50;5043295;28;20108;-73
2022/05/26 03:54:16;;;;;;;16.08;9.90;;;;;;;14.62;75.75;101719.09;5031799;28;20046;-73
2022/05/26 03:56:43;;;;;;;19.60;10.02;;;;;;;14.64;75.84;101712.84;5036354;28;20078;-74
2022/05/26 03:59:10;;;;;;;16.00;9.38;;;;;;;14.64;75.84;101718.16;5032234;28;20042;-71
2022/05/26 04:01:37;;;;;;;21.80;10.52;;;;;;;14.64;75.86;101717.28;5031099;28;20100;-71
2022/05/26 04:04:04;;;;;;;19.17;9.95;;;;;;;14.61;75.97;101728.88;5032241;28;20781;-71
2022/05/26 04:06:31;;;;;;;20.27;9.68;;;;;;;14.63;75.97;101721.72;5034908;28;20562;-71
2022/05/26 04:08:59;;;;;;;22.65;9.82;;;;;;;14.65;75.94;101729.63;5044335;28;20088;-72
2022/05/26 04:11:26;;;;;;;20.85;9.88;;;;;;;14.62;75.78;101722.63;5046283;28;20057;-72
2022/05/26 04:13:53;;;;;;;28.67;10.07;;;;;;;14.64;76.10;101723.47;5046392;28;20045;-72
2022/05/26 04:16:22;;;;;;;21.65;10.35;;;;;;;14.63;76.05;101724.38;5031596;28;20154;-75
2022/05/26 04:18:51;;;;;;;20.75;9.45;;;;;;;14.66;76.01;101728.72;5039481;28;20129;-74
2022/05/26 04:21:19;;;;;;;22.58;10.02;;;;;;;14.66;75.99;101734.88;5030905;28;20049;-74
2022/05/26 04:23:47;;;;;;;19.83;10.57;;;;;;;14.68;75.92;101733.06;5032452;28;20034;-75
2022/05/26 04:26:14;;;;;;;21.08;10.40;;;;;;;14.70;75.94;101735.69;5037739;28;20045;-75
2022/05/26 04:28:41;;;;;;;23.55;9.43;;;;;;;14.70;75.95;101741.00;5035987;28;20037;-75
2022/05/26 04:31:08;;;;;;;20.83;10.20;;;;;;;14.74;75.85;101743.50;5036412;28;20092;-71
2022/05/26 04:33:36;;;;;;;19.35;9.82;;;;;;;14.78;75.65;101738.06;5040069;28;20046;-74
2022/05/26 04:36:05;;;;;;;20.20;9.65;;;;;;;14.79;75.33;101738.03;5039703;28;20077;-73
2022/05/26 04:38:33;;;;;;;15.75;9.18;;;;;;;14.79;75.32;101747.78;5035268;28;20117;-74
2022/05/26 04:41:09;;;;;;;18.77;9.15;;;;;;;14.78;75.31;101749.56;5045521;28;20046;-73
2022/05/26 04:43:36;;;;;;;24.75;9.38;;;;;;;14.82;75.38;101755.63;5037915;28;20385;-71
2022/05/26 04:46:03;;;;;;;26.55;9.23;;;;;;;14.84;75.29;101761.78;5041810;28;20061;-73
2022/05/26 04:48:31;;;;;;;20.60;9.38;;;;;;;14.86;75.14;101754.59;5054210;28;20057;-73
2022/05/26 04:50:57;;;;;;;24.55;9.43;;;;;;;14.91;75.03;101745.56;5037419;28;20582;-73
2022/05/26 04:53:25;;;;;;;21.20;8.85;;;;;;;14.95;75.03;101753.44;5035642;28;20046;-74
2022/05/26 04:55:55;;;;;;;23.08;9.88;;;;;;;15.01;74.80;101758.53;5037078;28;20034;-73
2022/05/26 04:58:22;;;;;;;19.90;9.23;;;;;;;15.10;74.72;101763.53;5034616;28;20048;-73
2022/05/26 05:00:50;;;;;;;22.15;9.43;;;;;;;15.20;74.19;101767.63;5048171;28;20046;-73
2022/05/26 05:03:18;;;;;;;26.17;9.82;;;;;;;15.31;73.65;101769.03;5042272;28;20033;-75
2022/05/26 05:05:45;;;;;;;20.15;9.60;;;;;;;15.36;73.88;101767.91;5041851;28;20052;-74
2022/05/26 05:08:12;;;;;;;23.08;9.32;;;;;;;15.40;73.71;101775.78;5034394;28;20041;-74
2022/05/26 05:10:39;;;;;;;22.50;9.15;;;;;;;15.42;73.34;101782.75;5035692;28;20078;-75
2022/05/26 05:13:10;;;;;;;23.80;7.95;;;;;;;15.42;73.07;101784.56;5035282;28;20057;-75
2022/05/26 05:15:55;;;;;;;16.67;7.38;;;;;;;15.45;72.69;101795.94;5038084;28;20052;-74
2022/05/26 05:18:23;;;;;;;18.02;6.93;;;;;;;15.65;72.31;101791.69;5052499;28;20042;-74
2022/05/26 05:20:55;;;;;;;16.63;7.00;;;;;;;15.78;71.88;101792.09;5035605;28;20563;-73
2022/05/26 05:23:23;;;;;;;20.65;7.07;;;;;;;15.80;71.58;101790.25;5044459;28;20045;-74
2022/05/26 05:25:54;;;;;;;18.17;6.18;;;;;;;15.80;71.33;101799.13;5062044;28;20142;-74
2022/05/26 05:28:30;;;;;;;17.50;6.88;;;;;;;15.70;71.84;101800.38;5047613;28;20065;-74
2022/05/26 05:31:09;;;;;;;25.85;7.65;;;;;;;15.80;71.79;101812.41;5057820;28;20042;-72
2022/05/26 05:33:46;;;;;;;20.70;5.32;;;;;;;15.79;71.38;101813.34;5039476;28;20046;-74
2022/05/26 05:36:20;;;;;;;22.08;6.80;;;;;;;15.76;71.98;101824.06;5045229;28;20052;-73
2022/05/26 05:38:48;;;;;;;22.30;5.95;;;;;;;15.73;71.75;101829.50;5055092;28;20045;-73
2022/05/26 05:41:15;;;;;;;17.27;5.80;;;;;;;15.66;72.13;101817.34;5044639;28;20042;-73
2022/05/26 05:43:42;;;;;;;23.90;6.90;;;;;;;15.62;71.88;101821.03;5038091;28;20044;-72
2022/05/26 05:46:11;;;;;;;20.52;6.30;;;;;;;15.53;72.44;101824.91;5041084;28;20044;-73
2022/05/26 05:48:38;;;;;;;20.60;6.20;;;;;;;15.50;72.79;101819.69;5047506;28;20050;-73
2022/05/26 05:51:05;;;;;;;18.50;6.25;;;;;;;15.52;72.54;101825.84;5043129;28;20046;-73
2022/05/26 05:53:33;;;;;;;16.88;5.40;;;;;;;15.57;72.27;101821.19;5048649;28;20038;-72
2022/05/26 05:56:00;;;;;;;18.90;6.18;;;;;;;15.64;72.35;101828.06;5039454;28;20562;-73
2022/05/26 05:58:27;;;;;;;19.55;5.88;;;;;;;15.83;72.05;101824.72;5043971;28;20448;-73
2022/05/26 06:00:54;;;;;;;18.58;6.45;;;;;;;16.15;70.67;101814.72;5034130;28;20050;-72
2022/05/26 06:03:23;;;;;;;19.23;5.20;;;;;;;16.67;69.35;101818.91;5034397;28;20061;-73
2022/05/26 06:05:50;;;;;;;13.40;5.50;;;;;;;17.12;67.64;101828.59;5035434;28;20092;-70
2022/05/26 06:08:21;;;;;;;21.08;6.30;;;;;;;17.10;67.77;101829.59;5042801;28;20053;-71
2022/05/26 06:10:48;;;;;;;19.00;5.68;;;;;;;17.06;67.50;101831.53;5033537;28;20137;-71
2022/05/26 06:13:16;;;;;;;19.67;5.13;;;;;;;16.96;67.15;101843.50;5045498;28;20056;-73
2022/05/26 06:15:50;;;;;;;16.60;4.88;;;;;;;16.84;67.91;101847.50;5035979;28;20042;-70
2022/05/26 06:18:17;;;;;;;19.02;5.53;;;;;;;16.81;67.91;101848.47;5033965;28;20049;-71
2022/05/26 06:20:46;;;;;;;16.98;5.15;;;;;;;16.71;68.61;101850.66;5034383;28;20081;-71
2022/05/26 06:23:13;;;;;;;17.77;5.95;;;;;;;16.71;68.35;101853.31;5036526;28;20053;-72
2022/05/26 06:25:40;;;;;;;14.90;5.53;;;;;;;16.73;68.23;101858.56;5048718;28;20038;-71
2022/05/26 06:30:53;;;;;;;20.73;6.20;;;;;;;16.76;68.18;101855.81;5032233;28;20045;-72
2022/05/26 06:39:00;;;;;;;16.42;5.00;;;;;;;17.01;67.44;101862.81;5040257;28;20044;-72
2022/05/26 06:44:13;;;;;;;17.17;5.28;;;;;;;17.63;65.77;101862.88;5049546;28;20049;-73
2022/05/26 06:46:40;;;;;;;18.50;6.05;;;;;;;17.65;65.48;101864.53;5034737;28;20046;-73
2022/05/26 06:49:08;;;;;;;18.05;6.25;;;;;;;17.55;65.46;101876.53;5032332;28;20496;-72
2022/05/26 06:51:39;;;;;;;17.38;5.13;;;;;;;17.28;65.79;101874.13;5041660;28;20048;-73
2022/05/26 06:54:06;;;;;;;13.55;4.63;;;;;;;17.15;65.81;101878.22;5032729;28;20046;-73
2022/05/26 06:56:34;;;;;;;18.83;5.55;;;;;;;17.12;66.69;101883.69;5034866;28;20048;-72
2022/05/26 06:59:01;;;;;;;17.20;5.28;;;;;;;17.21;66.46;101892.16;5047014;28;20068;-72
2022/05/26 07:01:28;;;;;;;19.27;5.57;;;;;;;17.25;66.52;101887.56;5048437;28;20072;-73
2022/05/26 07:03:55;;;;;;;17.55;6.13;;;;;;;17.42;66.19;101886.00;5041334;28;20038;-72
2022/05/26 07:06:27;;;;;;;16.42;5.65;;;;;;;17.50;65.86;101900.72;5041704;28;20042;-71
2022/05/26 07:08:56;;;;;;;18.08;6.03;;;;;;;17.51;65.15;101897.13;5040287;28;20048;-72
2022/05/26 07:11:23;;;;;;;14.48;5.68;;;;;;;17.74;64.74;101894.41;5034852;28;20057;-71
2022/05/26 07:13:51;;;;;;;16.90;6.47;;;;;;;17.85;64.65;101895.66;5040274;28;20061;-72
2022/05/26 07:16:18;;;;;;;16.92;5.65;;;;;;;17.96;64.14;101902.31;5041617;28;20108;-73
2022/05/26 07:18:45;;;;;;;20.23;6.07;;;;;;;18.18;63.63;101910.25;5040565;28;20048;-73
2022/05/26 07:21:13;;;;;;;15.88;5.93;;;;;;;18.29;63.15;101917.78;5047815;28;20033;-74
2022/05/26 07:23:41;;;;;;;14.50;5.57;;;;;;;18.33;63.02;101915.81;5038156;28;20038;-74
2022/05/26 07:26:13;;;;;;;19.67;5.43;;;;;;;18.27;62.13;101919.63;5037164;28;20104;-72
2022/05/26 07:28:41;;;;;;;15.05;5.40;;;;;;;18.33;62.53;101910.47;5029292;28;20045;-72
2022/05/26 07:31:11;;;;;;;16.67;5.72;;;;;;;18.50;62.52;101915.91;5042653;28;20050;-72
2022/05/26 07:33:39;;;;;;;14.45;5.55;;;;;;;18.58;61.69;101913.72;5032856;28;20471;-71
2022/05/26 07:36:06;;;;;;;10.57;4.68;;;;;;;18.39;60.48;101905.72;5047156;28;20115;-71
2022/05/26 07:41:26;;;;;;;15.20;4.88;;;;;;;18.54;61.13;101914.81;5037885;28;20038;-72
2022/05/26 07:43:59;;;;;;;15.50;5.13;;;;;;;18.68;61.46;101918.63;5040978;28;20056;-71
2022/05/26 07:46:27;;;;;;;16.92;5.38;;;;;;;18.91;60.57;101918.41;5026694;28;20042;-71
2022/05/26 07:48:54;;;;;;;15.10;4.78;;;;;;;19.00;59.16;101918.91;5007296;28;20085;-71
2022/05/26 07:51:21;;;;;;;12.25;4.70;;;;;;;19.08;59.10;101922.97;5005621;28;20118;-72
2022/05/26 07:53:50;;;;;;;13.10;4.88;;;;;;;19.17;58.75;101931.47;5006862;28;20042;-71
2022/05/26 07:56:20;;;;;;;11.55;4.50;;;;;;;18.99;58.40;101931.44;5008582;28;20855;-72
2022/05/26 07:58:47;;;;;;;10.18;3.78;;;;;;;18.76;57.73;101933.38;5000571;28;20043;-71
2022/05/26 08:01:15;;;;;;;13.73;4.47;;;;;;;18.90;58.64;101932.69;5000351;28;20034;-72
2022/05/26 08:03:43;;;;;;;12.27;4.75;;;;;;;19.07;59.31;101928.38;5006559;28;20077;-72
2022/05/26 08:06:13;;;;;;;10.35;4.68;;;;;;;19.24;58.70;101943.56;5005989;28;20042;-72
2022/05/26 08:08:41;;;;;;;13.95;4.57;;;;;;;19.44;57.98;101944.38;5008024;28;20042;-72
2022/05/26 08:11:08;;;;;;;10.13;4.25;;;;;;;19.66;56.76;101938.81;5010101;28;20047;-71
2022/05/26 08:13:36;;;;;;;10.75;3.85;;;;;;;19.74;55.65;101939.28;5009901;28;20137;-72
2022/05/26 08:16:05;;;;;;;14.55;3.95;;;;;;;19.55;56.28;101945.59;5007022;28;20054;-72
2022/05/26 08:18:34;;;;;;;10.18;3.78;;;;;;;19.48;55.45;101949.53;4999408;28;20043;-71
2022/05/26 08:21:11;;;;;;;12.93;4.57;;;;;;;19.40;55.93;101949.03;4998324;28;20042;-71
2022/05/26 08:23:39;;;;;;;11.57;4.32;;;;;;;19.19;56.56;101941.13;4989568;28;20043;-72
2022/05/26 08:26:07;;;;;;;10.43;4.03;;;;;;;18.90;57.41;101945.19;5001274;28;20042;-70
2022/05/26 08:28:34;;;;;;;11.32;4.50;;;;;;;18.87;58.03;101945.34;5002631;28;20035;-70
2022/05/26 08:31:02;;;;;;;10.30;4.18;;;;;;;19.28;57.70;101950.50;5000305;28;20498;-71
2022/05/26 08:33:29;;;;;;;9.07;4.10;;;;;;;19.64;56.55;101948.72;5003396;28;20065;-72
2022/05/26 08:36:07;;;;;;;10.15;4.20;;;;;;;19.80;56.19;101956.84;4996039;28;20053;-71
2022/05/26 08:38:36;;;;;;;10.90;4.05;;;;;;;19.75;54.49;101951.72;4991930;28;20051;-72
2022/05/26 08:41:16;;;;;;;11.07;4.18;;;;;;;20.01;54.26;101963.78;5001494;28;20523;-72
2022/05/26 08:43:54;;;;;;;9.70;3.92;;;;;;;19.99;54.03;101954.97;4994149;28;20161;-71
2022/05/26 08:46:22;;;;;;;10.38;3.80;;;;;;;19.99;53.10;101948.75;5003718;28;20122;-72
2022/05/26 08:49:08;;;;;;;9.55;4.38;;;;;;;19.99;53.28;101952.28;5000918;28;20049;-72
2022/05/26 08:51:51;;;;;;;12.55;4.28;;;;;;;20.21;53.66;101952.94;4992908;28;20046;-73
2022/05/26 08:54:33;;;;;;;9.73;3.97;;;;;;;20.23;52.98;101949.25;4996281;28;20047;-73
2022/05/26 08:57:05;;;;;;;12.40;4.32;;;;;;;20.39;52.49;101953.78;5011502;28;20040;-73
2022/05/26 08:59:40;;;;;;;12.60;4.25;;;;;;;20.61;52.14;101956.13;4999068;28;20110;-72
2022/05/26 09:02:34;;;;;;;14.10;4.10;;;;;;;20.69;52.19;101963.75;5004765;28;20652;-72
2022/05/26 09:05:09;;;;;;;10.07;4.07;;;;;;;20.66;50.95;101962.09;4993481;28;20531;-71
2022/05/26 09:13:20;;;;;;;10.40;3.45;;;;;;;20.31;51.69;101967.56;5003165;28;20046;-72
2022/05/26 09:15:48;;;;;;;8.80;3.97;;;;;;;20.32;51.15;101966.63;5000708;28;20051;-71
2022/05/26 09:18:21;;;;;;;6.97;3.53;;;;;;;20.38;50.71;101966.31;5007692;28;20045;-72
2022/05/26 09:20:51;;;;;;;8.35;3.47;;;;;;;20.44;51.04;101962.44;4998289;28;20437;-71
2022/05/26 09:23:29;;;;;;;9.93;3.70;;;;;;;20.48;51.19;101970.22;5000033;28;20046;-71
2022/05/26 09:26:02;;;;;;;11.32;3.72;;;;;;;20.53;51.11;101972.63;5001363;28;20049;-71
2022/05/26 09:28:46;;;;;;;9.57;4.05;;;;;;;20.68;51.25;101975.41;5004175;28;20196;-71
2022/05/26 09:31:34;;;;;;;6.47;3.45;;;;;;;20.92;50.93;101981.25;5010308;28;20355;-72
2022/05/26 09:34:04;;;;;;;6.47;2.28;;;;;;;21.17;50.02;101978.03;5010615;28;20050;-69
2022/05/26 09:36:48;;;;;;;7.70;2.47;;;;;;;21.21;47.53;101981.44;5011513;28;20046;-71
2022/05/26 09:39:45;;;;;;;17.33;3.30;;;;;;;21.30;47.41;101993.41;5013770;28;20072;-71
2022/05/26 09:42:20;;;;;;;8.07;2.75;;;;;;;21.22;48.71;101985.81;5015478;28;20054;-71
2022/05/26 09:44:57;;;;;;;8.85;3.00;;;;;;;21.10;48.79;101999.00;5003485;28;20043;-72
2022/05/26 09:47:44;;;;;;;7.28;3.30;;;;;;;21.27;47.72;101994.47;5004190;28;20045;-70
2022/05/26 09:50:37;;;;;;;8.40;3.28;;;;;;;21.38;46.41;101993.84;5001349;28;20057;-70
2022/05/26 09:53:08;;;;;;;7.38;2.63;;;;;;;21.33;46.97;101998.63;4999489;28;20046;-70
2022/05/26 09:55:50;;;;;;;6.45;2.88;;;;;;;21.10;46.76;101999.00;5001517;28;20043;-71
2022/05/26 09:58:30;;;;;;;6.15;2.50;;;;;;;20.89;47.74;101998.38;5000099;28;20489;-70
2022/05/26 10:01:03;;;;;;;9.43;2.80;;;;;;;21.00;47.55;101995.09;5011465;28;20043;-72
2022/05/26 10:03:36;;;;;;;7.43;2.53;;;;;;;20.99;47.16;101998.72;4998423;28;20038;-70
2022/05/26 10:06:33;;;;;;;7.60;2.50;;;;;;;21.08;48.10;101992.84;4999052;28;20429;-70
2022/05/26 10:09:19;;;;;;;6.50;2.58;;;;;;;21.34;46.12;102003.03;4996616;28;20051;-70
2022/05/26 10:12:16;;;;;;;5.75;1.92;;;;;;;21.36;44.93;102007.34;5011373;28;20046;-70
2022/05/26 10:15:14;;;;;;;5.22;2.10;;;;;;;21.15;46.33;101998.72;5010691;28;20042;-70
2022/05/26 10:17:57;;;;;;;6.70;2.45;;;;;;;20.94;46.38;101998.09;5004550;28;20140;-70
2022/05/26 10:20:50;;;;;;;5.68;2.08;;;;;;;20.64;45.78;102005.06;5003292;28;20045;-69
2022/05/26 10:23:45;;;;;;;5.60;2.58;;;;;;;20.27;47.35;102015.06;5004225;28;20038;-71
2022/05/26 10:26:27;;;;;;;7.47;4.22;;;;;;;20.31;48.70;102016.63;5008238;28;20485;-70
2022/05/26 10:29:14;;;;;;;8.43;4.78;;;;;;;20.67;48.76;102012.06;5006773;28;20177;-70
2022/05/26 10:32:15;;;;;;;6.88;3.58;;;;;;;20.82;48.04;102015.75;4994008;28;20073;-74
2022/05/26 10:34:42;;;;;;;7.60;3.28;;;;;;;20.71;47.90;102018.09;5006537;28;20049;-73
2022/05/26 10:37:50;;;;;;;9.50;5.90;;;;;;;20.60;48.99;102022.25;5007729;28;20042;-71
2022/05/26 10:40:53;;;;;;;12.00;5.97;;;;;;;20.44;49.53;102026.72;5004666;28;20067;-72
2022/05/26 10:43:42;;;;;;;10.93;6.32;;;;;;;20.27;49.79;102030.28;5006369;28;20042;-72
2022/05/26 10:46:15;;;;;;;12.90;7.70;;;;;;;20.24;50.56;102025.06;5009107;28;20070;-72
2022/05/26 10:49:15;;;;;;;12.50;7.60;;;;;;;20.44;50.58;102029.38;5001911;28;20581;-71
2022/05/26 10:51:57;;;;;;;11.00;7.00;;;;;;;20.50;49.93;102026.38;4994652;28;20050;-71
2022/05/26 10:54:57;;;;;;;10.05;6.05;;;;;;;20.44;50.17;102029.38;4993242;28;20069;-72
2022/05/26 10:57:53;;;;;;;11.10;4.05;;;;;;;20.34;49.21;102026.31;5007743;28;20040;-71
2022/05/26 11:00:28;;;;;;;5.05;3.03;;;;;;;20.19;48.43;102029.81;5007737;28;20503;-72
2022/05/26 11:03:19;;;;;;;7.05;4.00;;;;;;;20.28;47.80;102030.19;4999809;28;20034;-72
2022/05/26 11:06:07;;;;;;;9.68;4.30;;;;;;;20.59;46.81;102015.16;5005552;28;20901;-72
2022/05/26 11:08:43;;;;;;;8.27;4.75;;;;;;;20.70;47.87;102006.53;5006212;28;20045;-71
2022/05/26 11:11:39;;;;;;;7.25;3.60;;;;;;;20.75;47.00;102009.00;5005522;28;20046;-71
2022/05/26 11:17:35;;;;;;;5.65;2.85;;;;;;;21.40;45.90;102019.63;5006371;28;20330;-72
2022/05/26 11:20:17;;;;;;;4.97;2.83;;;;;;;21.48;45.39;102021.84;5003340;28;20049;-74
2022/05/26 11:22:48;;;;;;;6.43;2.80;;;;;;;21.33;44.26;102028.97;5003988;28;20121;-72
2022/05/26 11:25:26;;;;;;;8.20;3.25;;;;;;;21.48;44.72;102011.13;5005702;28;20053;-73
2022/05/26 11:28:21;;;;;;;7.80;2.63;;;;;;;21.74;44.31;102016.81;4999181;28;20053;-71
2022/05/26 11:37:01;;;;;;;8.75;2.80;;;;;;;21.27;44.69;102007.88;5003161;28;20889;-70
2022/05/26 11:39:37;;;;;;;5.97;2.10;;;;;;;21.34;44.21;102016.44;5005299;28;20090;-72
2022/05/26 11:42:10;;;;;;;8.88;1.92;;;;;;;21.31;44.96;102019.28;5019346;28;20066;-72
2022/05/26 11:45:04;;;;;;;3.72;1.90;;;;;;;21.10;44.69;102011.50;5003415;28;20050;-71
2022/05/26 11:48:00;;;;;;;5.00;2.97;;;;;;;20.93;45.13;102004.41;5006590;28;20050;-72
2022/05/26 11:51:22;;;;;;;6.95;2.60;;;;;;;21.14;45.39;102014.88;5003138;28;20051;-70
2022/05/26 11:53:50;;;;;;;5.07;2.70;;;;;;;21.24;45.43;101997.31;5002788;28;20117;-71
2022/05/26 11:56:23;;;;;;;4.90;2.90;;;;;;;21.15;45.86;101996.03;5007504;28;20042;-73
2022/05/26 11:59:32;;;;;;;6.53;3.08;;;;;;;21.16;45.75;102002.25;5004073;28;20078;-72
2022/05/26 12:01:59;;;;;;;8.07;3.10;;;;;;;21.16;45.71;101992.41;5004248;28;20050;-71
2022/05/26 12:04:33;;;;;;;6.80;3.45;;;;;;;21.39;44.30;102000.94;5005939;28;20045;-72
2022/05/26 12:07:21;;;;;;;8.13;4.20;;;;;;;21.61;44.10;101991.66;5005750;28;20052;-72
2022/05/26 12:09:52;;;;;;;10.57;4.68;;;;;;;21.76;44.74;101990.78;5008093;28;20588;-71
2022/05/26 12:12:21;;;;;;;8.02;5.18;;;;;;;22.03;44.56;101992.72;5019844;28;20058;-71
2022/05/26 12:14:54;;;;;;;8.30;5.15;;;;;;;22.32;43.24;101992.75;5005517;28;20046;-71
2022/05/26 12:17:50;;;;;;;8.35;6.13;;;;;;;22.62;42.54;101987.31;5009409;28;20050;-72
2022/05/26 12:20:18;;;;;;;11.05;6.18;;;;;;;22.82;42.98;101990.56;5019682;28;20035;-71
2022/05/26 12:22:51;;;;;;;8.60;6.55;;;;;;;22.87;42.37;101976.81;5020726;28;20050;-72
2022/05/26 12:25:25;;;;;;;9.07;5.97;;;;;;;22.76;43.29;101983.75;5016673;28;20048;-70
2022/05/26 12:27:55;;;;;;;10.70;5.53;;;;;;;22.60;43.66;101975.81;5029244;28;20031;-71
2022/05/26 12:30:45;;;;;;;9.40;5.63;;;;;;;22.59;42.88;101979.47;5022877;28;20859;-70
2022/05/26 12:33:19;;;;;;;9.45;5.47;;;;;;;22.69;43.62;101970.81;5000173;28;20101;-71